METAR Data
IDs: Format: Raw Decoded Include TAF

Data at: 2116 UTC 21 Sep 2021

KSYN 212055Z AUTO 30013G19KT 10SM SCT050 19/07 A3020 RMK AO2 T01940069
KSYN 212035Z AUTO 31010G15KT 10SM SCT050 20/07 A3020 RMK AO2 T01950073
KSYN 212015Z AUTO 33013G18KT 10SM SCT050 19/07 A3020 RMK AO2 T01910072
KSYN 211955Z AUTO 35010G15KT 10SM SCT050 SCT065 19/08 A3020 RMK AO2 T01880077
KSYN 211935Z AUTO 32009G16KT 10SM SCT050 SCT060 19/08 A3020 RMK AO2 T01930076
KSYN 211915Z AUTO 30009KT 10SM SCT048 SCT060 19/08 A3020 RMK AO2 T01860079
KSYN 211855Z AUTO 31013G18KT 10SM SCT041 SCT060 19/09 A3020 RMK AO2 T01910088
KSYN 211835Z AUTO 31010G16KT 10SM BKN041 BKN060 19/09 A3020 RMK AO2 T01900093
KSYN 211815Z AUTO 30013G16KT 10SM SCT041 SCT050 19/10 A3020 RMK AO2 T01910096
KSYN 211755Z AUTO 32013G17KT 10SM SCT040 19/10 A3020 RMK AO2 T01880099 10188 20101
KSYN 211735Z AUTO 31013G17KT 10SM SCT034 SCT043 19/10 A3020 RMK AO2 T01850102
KSYN 211715Z AUTO 32011G17KT 10SM SCT034 SCT043 19/11 A3020 RMK AO2 T01860110
KSYN 211655Z AUTO 33010G14KT 10SM CLR 18/11 A3020 RMK AO2 T01820105
KSYN 211635Z AUTO 33012KT 10SM CLR 18/10 A3020 RMK AO2 T01780101
KSYN 211615Z AUTO 31012G16KT 10SM SCT028 18/11 A3020 RMK AO2 T01750108
KSYN 211555Z AUTO 32007KT 10SM CLR 17/11 A3020 RMK AO2 T01710114
KSYN 211535Z AUTO 34007KT 10SM SCT060 16/11 A3020 RMK AO2 T01610105
KSYN 211515Z AUTO 32008KT 10SM SCT050 SCT060 15/11 A3019 RMK AO2 T01530105
KSYN 211455Z AUTO 30006KT 10SM SCT047 SCT060 BKN070 15/12 A3018 RMK AO2 T01470115
KSYN 211435Z AUTO 28005KT 10SM SCT047 SCT060 OVC070 13/11 A3018 RMK AO2 T01340111
KSYN 211415Z AUTO 28007KT 10SM SCT047 SCT060 OVC080 13/11 A3016 RMK AO2 T01310111
KSYN 211355Z AUTO 28007KT 10SM OVC075 13/11 A3015 RMK AO2 T01270109
KSYN 211335Z AUTO 28006KT 10SM SCT065 BKN075 12/11 A3014 RMK AO2 T01210105
KSYN 211315Z AUTO 27006KT 10SM SCT065 12/10 A3014 RMK AO2 T01150101
KSYN 211255Z AUTO 27006KT 10SM BKN065 11/10 A3013 RMK AO2 T01130102
KSYN 211235Z AUTO 28007KT 10SM CLR 11/10 A3012 RMK AO2 T01050096
KSYN 211215Z AUTO 28007KT 10SM CLR 10/09 A3012 RMK AO2 T01020093
KSYN 211155Z AUTO 28007KT 10SM CLR 11/10 A3010 RMK AO2 T01050095 10138 20103
KSYN 211135Z AUTO 27005KT 10SM CLR 10/10 A3009 RMK AO2 T01040095
KSYN 211115Z AUTO 27005KT 10SM CLR 10/09 A3007 RMK AO2 T01040094
KSYN 211055Z AUTO 28006KT 10SM CLR 11/10 A3007 RMK AO2 T01070096
KSYN 211035Z AUTO 26006KT 10SM CLR 11/10 A3006 RMK AO2 T01070096
KSYN 211015Z AUTO 27004KT 10SM CLR 11/10 A3003 RMK AO2 T01070095
KSYN 210955Z AUTO 27005KT 10SM CLR 11/10 A3003 RMK AO2 T01110099
KSYN 210935Z AUTO 27004KT 10SM CLR 11/10 A3002 RMK AO2 T01110100
KSYN 210915Z AUTO 30005KT 10SM CLR 11/10 A3000 RMK AO2 T01110097
KSYN 210855Z AUTO 28004KT 10SM SCT035 12/10 A3001 RMK AO2 T01190103
KSYN 210835Z AUTO 28005KT 10SM SCT029 BKN037 13/11 A3000 RMK AO2 T01290108
KSYN 210815Z AUTO 29007KT 10SM BKN027 BKN035 BKN065 13/11 A3000 RMK AO2 T01300110
KSYN 210755Z AUTO 28007KT 10SM SCT026 SCT031 OVC055 13/11 A2999 RMK AO2 T01330108
KSYN 210735Z AUTO 30008KT 10SM BKN055 OVC075 14/11 A2998 RMK AO2 T01360107
KSYN 210715Z AUTO 31008KT 10SM SCT055 OVC065 14/11 A2997 RMK AO2 T01380107
KSYN 210655Z AUTO 31006KT 10SM OVC065 14/11 A2997 RMK AO2 T01380107
KSYN 210635Z AUTO 31007KT 10SM OVC055 14/11 A2996 RMK AO2 T01380108
KSYN 210615Z AUTO 31009KT 10SM OVC050 14/11 A2996 RMK AO2 T01370107
KSYN 210555Z AUTO 32007G15KT 10SM OVC050 14/11 A2995 RMK AO2 T01370108 10165 20137 402580137
KSYN 210535Z AUTO 33009G18KT 10SM SCT021 SCT026 OVC046 14/11 A2994 RMK AO2 T01390106
KSYN 210515Z AUTO 32012G16KT 10SM BKN023 OVC044 14/11 A2994 RMK AO2 T01410109
KSYN 210455Z AUTO 32012G17KT 10SM SCT023 OVC040 14/11 A2993 RMK AO2 T01420110
KSYN 210435Z AUTO 32013KT 10SM SCT016 SCT026 OVC037 14/12 A2991 RMK AO2 T01420115
KSYN 210415Z AUTO 33014G22KT 10SM BKN017 BKN026 OVC031 15/12 A2990 RMK AO2 T01450119
KSYN 210355Z AUTO 30013G21KT 10SM SCT017 BKN023 OVC030 15/13 A2988 RMK AO2 T01530131
KSYN 210335Z AUTO 29010KT 10SM SCT018 BKN026 OVC044 16/13 A2988 RMK AO2 T01550134